Brooks, Wisconsin
Current Conditions -  °F | °C
As of 1:15 PM on Friday 24 Oct 2014 (Local Time) from KDLL Reporting Station
Clear Clear  
Wind Chill: 57°   Ceiling: Unl
Heat Index: 57°   Visibility: 10mi
Dew Point: 49°   Wind: 7mph
Humidity: 73%   Direction: 210°SSW
Pressure: 29.97"   Gusts: NA
Location:  43.7882°N, 89.5815°W
Report Text: KDLL 241815Z AUTO 21006KT 10SM CLR 14/09 A2997 RMK AO2 T01400093
Loading
Personal Weather Stations






























Interactive Weather Map
Tropical Storm Tracking
New forecast layout! Learn more

10-Day Weather Forecast

Advertisements
Track Severe Weather on mobile